Time;durP1;ratioP1;P1;durP2;ratioP2;P2;SDS_P1;SDS_P2;PMS_P1;PMS_P2;Temp;Humidity;BMP_temperature;BMP_pressure;BME280_temperature;BME280_humidity;BME280_pressure;Samples;Min_cycle;Max_cycle;Signal;HPM_P1;HPM_P2
2021/12/23 00:00:39;;;;;;;32.88;17.70;;;3.40;99.90;;;;;;6154259;23;20017;-75
2021/12/23 00:03:06;;;;;;;31.25;17.38;;;2.50;99.90;;;;;;6179765;23;20035;-75
2021/12/23 00:05:31;;;;;;;29.67;16.98;;;3.20;99.90;;;;;;6179760;23;20108;-75
2021/12/23 00:07:58;;;;;;;30.88;17.52;;;1.70;99.90;;;;;;6154311;23;20017;-75
2021/12/23 00:10:24;;;;;;;30.75;16.30;;;3.70;99.90;;;;;;6179589;23;20021;-74
2021/12/23 00:12:50;;;;;;;30.02;17.25;;;1.50;99.90;;;;;;6180534;23;20770;-75
2021/12/23 00:15:36;;;;;;;29.15;17.30;;;2.30;99.90;;;;;;6181028;23;20056;-74
2021/12/23 00:18:16;;;;;;;28.88;17.63;;;1.50;99.90;;;;;;6180103;23;20025;-75
2021/12/23 00:23:26;;;;;;;29.75;17.02;;;0.30;99.90;;;;;;6204685;23;20021;-75
2021/12/23 00:25:56;;;;;;;31.02;17.25;;;3.70;99.90;;;;;;6154953;23;20033;-75
2021/12/23 00:28:22;;;;;;;30.98;17.27;;;3.10;99.90;;;;;;6153738;23;20085;-75
2021/12/23 00:30:48;;;;;;;26.50;16.00;;;2.70;99.90;;;;;;6179210;22;20017;-75
2021/12/23 00:33:14;;;;;;;30.77;17.27;;;1.80;99.90;;;;;;6178948;23;20369;-74
2021/12/23 00:35:39;;;;;;;27.23;12.98;;;1.90;99.90;;;;;;6154324;23;20446;-75
2021/12/23 00:38:14;;;;;;;18.67;10.88;;;1.90;99.90;;;;;;6179135;23;20040;-75
2021/12/23 00:40:40;;;;;;;21.40;12.30;;;1.40;99.90;;;;;;6179200;23;20017;-75
2021/12/23 00:43:06;;;;;;;23.30;13.23;;;4.00;99.90;;;;;;6178922;23;20032;-75
2021/12/23 00:45:32;;;;;;;29.15;16.10;;;0.60;99.90;;;;;;6179235;23;20355;-74
2021/12/23 00:47:57;;;;;;;31.58;16.63;;;1.90;99.90;;;;;;6180961;23;20017;-75
2021/12/23 00:50:23;;;;;;;25.58;13.48;;;0.90;99.90;;;;;;6181000;23;20017;-75
2021/12/23 00:52:56;;;;;;;33.53;16.77;;;1.90;99.90;;;;;;6178973;23;20017;-75
2021/12/23 00:55:22;;;;;;;21.23;13.10;;;2.40;99.90;;;;;;6178936;23;20013;-75
2021/12/23 00:57:48;;;;;;;24.80;15.65;;;2.70;99.90;;;;;;6154074;23;20021;-74
2021/12/23 01:00:18;;;;;;;26.10;15.23;;;3.50;99.90;;;;;;6130236;23;20035;-75
2021/12/23 01:02:45;;;;;;;23.40;14.82;;;1.10;99.90;;;;;;6179012;23;20485;-75
2021/12/23 01:05:12;;;;;;;19.70;12.05;;;1.80;99.90;;;;;;6179589;23;20013;-74
2021/12/23 01:07:38;;;;;;;22.63;13.90;;;2.80;99.90;;;;;;6154095;23;20049;-74
2021/12/23 01:10:05;;;;;;;26.27;13.88;;;3.20;99.90;;;;;;6154304;23;20028;-74
2021/12/23 01:12:38;;;;;;;24.95;15.55;;;1.70;99.90;;;;;;6154132;23;20024;-75
2021/12/23 01:18:00;;;;;;;23.73;12.60;;;1.80;99.90;;;;;;6181074;23;20351;-75
2021/12/23 01:20:29;;;;;;;;;;;1.70;99.90;;;;;;6179563;23;20423;-74
2021/12/23 01:23:02;;;;;;;30.05;15.60;;;2.00;99.90;;;;;;6178780;23;20423;-75
2021/12/23 01:25:29;;;;;;;27.55;16.20;;;;;;;;;;6154622;23;20067;-75
2021/12/23 01:27:55;;;;;;;30.17;17.42;;;1.50;99.90;;;;;;6203310;23;20021;-74
2021/12/23 01:30:21;;;;;;;27.73;16.55;;;2.00;99.90;;;;;;6181056;23;20013;-75
2021/12/23 01:32:50;;;;;;;28.77;16.00;;;3.70;99.90;;;;;;6179118;23;20048;-75
2021/12/23 01:35:17;;;;;;;26.70;15.82;;;1.70;99.90;;;;;;6179073;23;20021;-75
2021/12/23 01:37:43;;;;;;;28.77;16.33;;;1.80;99.90;;;;;;6153415;23;20339;-75
2021/12/23 01:40:12;;;;;;;29.38;17.83;;;1.90;99.90;;;;;;6178954;23;20021;-74
2021/12/23 01:42:38;;;;;;;28.27;16.92;;;;;;;;;;6154364;23;20017;-75
2021/12/23 01:45:11;;;;;;;30.48;16.35;;;1.80;99.90;;;;;;6154175;23;20056;-74
2021/12/23 01:47:37;;;;;;;27.25;16.15;;;1.80;99.90;;;;;;6154647;23;20055;-74
2021/12/23 01:50:04;;;;;;;742.58;51.63;;;3.40;99.90;;;;;;6179004;23;20021;-75
2021/12/23 01:52:30;;;;;;;22.05;12.60;;;2.00;99.90;;;;;;6154078;23;20014;-75
2021/12/23 01:54:56;;;;;;;24.05;13.43;;;1.80;99.90;;;;;;6154417;23;20017;-74
2021/12/23 01:57:24;;;;;;;22.77;13.88;;;1.60;99.90;;;;;;6178589;23;20025;-74
2021/12/23 01:59:50;;;;;;;25.05;13.75;;;2.80;99.90;;;;;;6154486;23;20092;-75
2021/12/23 02:02:16;;;;;;;30.00;14.23;;;-0.20;99.90;;;;;;6180898;23;20327;-74
2021/12/23 02:04:42;;;;;;;29.05;16.63;;;3.40;99.90;;;;;;6154447;23;20029;-76
2021/12/23 02:07:08;;;;;;;24.65;14.65;;;2.00;99.90;;;;;;6179079;23;20760;-75
2021/12/23 02:09:34;;;;;;;20.95;11.75;;;2.60;99.90;;;;;;6153928;23;20017;-75
2021/12/23 02:12:00;;;;;;;24.23;14.48;;;1.00;99.90;;;;;;6179098;23;20111;-75
2021/12/23 02:14:26;;;;;;;27.60;16.15;;;3.80;99.90;;;;;;6153899;23;20025;-74
2021/12/23 02:16:51;;;;;;;26.58;13.82;;;3.30;99.90;;;;;;6178769;23;20324;-74
2021/12/23 02:19:19;;;;;;;23.50;15.25;;;1.40;99.90;;;;;;6178723;23;20052;-74
2021/12/23 02:21:47;;;;;;;30.27;16.45;;;1.30;99.90;;;;;;6178768;23;20013;-74
2021/12/23 02:24:13;;;;;;;24.85;16.08;;;3.70;99.90;;;;;;6178402;23;20021;-74
2021/12/23 02:26:40;;;;;;;21.45;12.18;;;2.40;99.90;;;;;;6178807;23;20121;-75
2021/12/23 02:29:06;;;;;;;27.23;15.52;;;2.90;99.90;;;;;;6178863;23;20013;-75
2021/12/23 02:31:33;;;;;;;24.60;15.45;;;2.90;99.90;;;;;;6178981;23;20091;-74
2021/12/23 02:33:59;;;;;;;23.77;13.30;;;2.20;99.90;;;;;;6181228;23;20040;-74
2021/12/23 02:36:26;;;;;;;22.83;14.63;;;2.50;99.90;;;;;;6154396;23;20363;-75
2021/12/23 02:38:53;;;;;;;20.45;12.55;;;1.30;99.90;;;;;;6154562;23;20029;-74
2021/12/23 02:41:19;;;;;;;18.00;10.13;;;;;;;;;;6179468;23;20586;-75
2021/12/23 02:43:45;;;;;;;23.48;13.38;;;1.90;99.90;;;;;;6153762;23;20021;-74
2021/12/23 02:46:13;;;;;;;19.02;11.30;;;2.70;99.90;;;;;;6178337;23;20720;-74
2021/12/23 02:48:39;;;;;;;16.15;10.15;;;2.90;99.90;;;;;;6154283;23;20021;-74
2021/12/23 02:51:09;;;;;;;21.05;13.38;;;1.60;99.90;;;;;;6154355;23;20025;-75
2021/12/23 02:53:36;;;;;;;17.42;10.32;;;2.10;99.90;;;;;;6179240;23;20027;-74
2021/12/23 02:56:05;;;;;;;15.70;10.40;;;3.50;99.90;;;;;;6179008;23;20407;-74
2021/12/23 02:58:32;;;;;;;21.67;11.55;;;2.20;99.90;;;;;;6153630;23;20014;-74
2021/12/23 03:01:00;;;;;;;17.42;10.13;;;2.60;99.90;;;;;;6178675;23;20033;-75
2021/12/23 03:03:26;;;;;;;21.10;11.70;;;3.60;99.90;;;;;;6154294;23;20452;-74
2021/12/23 03:05:55;;;;;;;26.42;13.68;;;1.80;99.90;;;;;;6153969;23;20044;-74
2021/12/23 03:08:36;;;;;;;20.42;11.57;;;3.60;99.90;;;;;;6153826;23;20088;-75
2021/12/23 03:11:05;;;;;;;26.73;12.75;;;3.30;99.90;;;;;;6179176;23;20492;-74
2021/12/23 03:13:31;;;;;;;28.65;14.25;;;3.40;99.90;;;;;;6178337;23;20025;-75
2021/12/23 03:15:58;;;;;;;26.65;13.98;;;2.00;99.90;;;;;;6179195;23;20339;-75
2021/12/23 03:18:24;;;;;;;25.25;15.88;;;1.50;99.90;;;;;;6153879;23;20021;-74
2021/12/23 03:20:50;;;;;;;26.13;15.32;;;1.90;99.90;;;;;;6153911;23;20017;-76
2021/12/23 03:23:16;;;;;;;29.77;16.83;;;4.20;99.90;;;;;;6178407;23;20017;-74
2021/12/23 03:25:42;;;;;;;23.98;15.82;;;1.80;99.90;;;;;;6178447;23;20113;-75
2021/12/23 03:28:08;;;;;;;26.23;14.65;;;3.70;99.90;;;;;;6153539;23;20385;-74
2021/12/23 03:30:34;;;;;;;19.23;11.95;;;3.30;99.90;;;;;;6153517;23;20017;-74
2021/12/23 03:33:00;;;;;;;21.80;12.07;;;1.80;99.90;;;;;;6178612;23;20017;-75
2021/12/23 03:35:26;;;;;;;21.77;14.52;;;3.50;99.90;;;;;;6179269;23;20017;-74
2021/12/23 03:37:53;;;;;;;26.83;16.10;;;2.10;99.90;;;;;;6179596;23;20025;-75
2021/12/23 03:40:19;;;;;;;22.25;12.73;;;3.30;99.90;;;;;;6180218;23;20025;-75
2021/12/23 03:42:45;;;;;;;29.30;15.60;;;1.60;99.90;;;;;;6179730;23;20085;-75
2021/12/23 03:45:11;;;;;;;25.25;13.38;;;;;;;;;;6155406;23;20355;-74
2021/12/23 03:47:38;;;;;;;25.13;14.65;;;1.80;99.90;;;;;;6204785;23;20060;-74
2021/12/23 03:50:05;;;;;;;23.75;13.70;;;1.60;99.90;;;;;;6155170;23;20346;-74
2021/12/23 03:52:31;;;;;;;25.67;15.70;;;1.70;99.90;;;;;;6154067;23;20099;-75
2021/12/23 03:54:57;;;;;;;22.48;12.25;;;2.30;99.90;;;;;;6179959;23;20433;-76
2021/12/23 03:57:23;;;;;;;18.38;11.30;;;1.50;99.90;;;;;;6179355;23;20021;-75
2021/12/23 03:59:49;;;;;;;26.35;14.20;;;3.20;99.90;;;;;;6179827;23;20025;-75
2021/12/23 04:02:15;;;;;;;15.10;9.52;;;2.60;99.90;;;;;;6179739;23;20042;-74
2021/12/23 04:04:41;;;;;;;491.08;31.95;;;3.00;99.90;;;;;;6179553;22;20078;-74
2021/12/23 04:07:07;;;;;;;21.60;13.38;;;2.80;99.90;;;;;;6179629;23;20099;-74
2021/12/23 04:09:33;;;;;;;19.42;11.73;;;2.70;99.90;;;;;;6179550;23;20427;-74
2021/12/23 04:11:59;;;;;;;23.25;14.48;;;0.70;99.90;;;;;;6179903;23;20017;-75
2021/12/23 04:14:25;;;;;;;31.17;17.00;;;3.40;99.90;;;;;;6155168;23;20026;-75
2021/12/23 04:16:51;;;;;;;29.33;17.17;;;4.00;99.90;;;;;;6179725;22;20359;-74
2021/12/23 04:19:17;;;;;;;32.45;17.88;;;1.60;99.90;;;;;;6179500;23;20092;-75
2021/12/23 04:21:43;;;;;;;27.05;15.80;;;3.70;99.90;;;;;;6179474;23;20063;-74
2021/12/23 04:24:09;;;;;;;22.27;13.13;;;2.40;99.90;;;;;;6179589;23;20058;-74
2021/12/23 04:26:37;;;;;;;22.52;12.23;;;1.50;99.90;;;;;;6179562;23;20077;-74
2021/12/23 04:29:04;;;;;;;28.38;15.90;;;2.10;99.90;;;;;;6179511;23;20017;-74
2021/12/23 04:31:30;;;;;;;27.95;17.00;;;3.60;99.90;;;;;;6179741;23;20028;-74
2021/12/23 04:33:56;;;;;;;21.52;13.13;;;3.10;99.90;;;;;;6179635;23;20017;-74
2021/12/23 04:36:26;;;;;;;20.77;12.38;;;1.90;99.90;;;;;;6154816;23;20473;-74
2021/12/23 04:38:53;;;;;;;29.45;17.35;;;3.70;99.90;;;;;;6179488;23;20017;-75
2021/12/23 04:41:20;;;;;;;21.05;12.35;;;1.70;99.90;;;;;;6179572;23;20017;-75
2021/12/23 04:43:46;;;;;;;25.10;14.98;;;3.20;99.90;;;;;;6154843;23;20021;-74
2021/12/23 04:46:12;;;;;;;34.15;16.85;;;2.80;99.90;;;;;;6154528;23;20024;-74
2021/12/23 04:48:38;;;;;;;31.45;18.30;;;4.20;99.90;;;;;;6179766;23;20017;-74
2021/12/23 04:51:04;;;;;;;30.48;18.73;;;3.70;99.90;;;;;;6154511;23;20443;-74
2021/12/23 04:53:30;;;;;;;34.10;20.50;;;1.60;99.90;;;;;;6167145;23;20042;-74
2021/12/23 04:55:57;;;;;;;32.80;19.05;;;3.00;99.90;;;;;;6179473;23;20021;-76
2021/12/23 04:58:24;;;;;;;30.00;17.52;;;3.60;99.90;;;;;;6179093;23;20324;-74
2021/12/23 05:00:51;;;;;;;29.25;18.35;;;1.40;99.90;;;;;;6178789;23;20045;-74
2021/12/23 05:03:19;;;;;;;30.98;19.25;;;3.60;99.90;;;;;;6154727;23;20021;-74
2021/12/23 05:05:45;;;;;;;28.55;16.08;;;2.60;99.90;;;;;;6180077;23;20013;-75
2021/12/23 05:08:12;;;;;;;35.45;19.35;;;3.80;99.90;;;;;;6179134;23;20021;-74
2021/12/23 05:10:38;;;;;;;34.50;21.48;;;;;;;;;;6179897;23;20323;-74
2021/12/23 05:13:05;;;;;;;41.47;24.30;;;2.10;99.90;;;;;;6204133;23;20013;-75
2021/12/23 05:15:31;;;;;;;29.67;17.52;;;4.60;99.90;;;;;;6155213;23;20017;-74
2021/12/23 05:17:58;;;;;;;29.75;16.30;;;2.40;99.90;;;;;;6155034;23;20025;-74
2021/12/23 05:20:24;;;;;;;37.45;21.20;;;4.90;99.90;;;;;;6179492;23;20024;-74
2021/12/23 05:22:50;;;;;;;25.90;14.38;;;2.30;99.90;;;;;;6179368;23;20024;-74
2021/12/23 05:25:17;;;;;;;28.95;17.50;;;2.80;99.90;;;;;;6179360;23;20096;-74
2021/12/23 05:27:44;;;;;;;33.42;19.10;;;4.50;99.90;;;;;;6179278;23;20351;-75
2021/12/23 05:30:13;;;;;;;29.55;16.40;;;2.60;99.90;;;;;;6179413;23;20017;-74
2021/12/23 05:32:41;;;;;;;35.45;18.50;;;4.40;99.90;;;;;;6179086;23;20070;-74
2021/12/23 05:35:09;;;;;;;24.73;13.82;;;4.40;99.90;;;;;;6179585;23;20435;-75
2021/12/23 05:37:35;;;;;;;25.80;16.02;;;2.40;99.90;;;;;;6179211;23;20017;-75
2021/12/23 05:40:01;;;;;;;27.25;15.68;;;2.40;99.90;;;;;;6179679;23;20021;-74
2021/12/23 05:42:27;;;;;;;27.15;16.45;;;2.50;99.90;;;;;;6181205;23;20339;-75
2021/12/23 05:44:52;;;;;;;30.42;17.23;;;2.80;99.90;;;;;;6179033;23;20025;-74
2021/12/23 05:47:18;;;;;;;33.53;18.33;;;3.20;99.90;;;;;;6180015;22;20017;-74
2021/12/23 05:49:44;;;;;;;25.50;14.52;;;4.50;99.90;;;;;;6154525;23;20025;-74
2021/12/23 05:52:10;;;;;;;23.77;14.15;;;1.80;99.90;;;;;;6179211;23;20065;-74
2021/12/23 05:54:38;;;;;;;29.60;15.45;;;2.90;99.90;;;;;;6154389;23;20017;-75
2021/12/23 05:57:04;;;;;;;25.83;17.17;;;2.70;99.90;;;;;;6153024;23;20017;-75
2021/12/23 05:59:31;;;;;;;29.85;16.00;;;2.70;99.90;;;;;;6154086;23;20021;-75
2021/12/23 06:02:00;;;;;;;26.73;15.52;;;2.80;99.90;;;;;;6154580;23;20036;-76
2021/12/23 06:04:26;;;;;;;37.33;16.70;;;2.50;99.90;;;;;;6154585;23;20023;-75
2021/12/23 06:06:52;;;;;;;32.35;16.25;;;2.80;99.90;;;;;;6179332;23;20106;-75
2021/12/23 06:09:18;;;;;;;29.10;17.52;;;3.40;99.90;;;;;;6153438;23;20040;-75
2021/12/23 06:11:44;;;;;;;30.98;17.48;;;2.30;99.90;;;;;;6178058;23;20401;-75
2021/12/23 06:14:10;;;;;;;27.73;15.55;;;2.60;99.90;;;;;;6154038;23;20025;-76
2021/12/23 06:16:36;;;;;;;32.00;16.38;;;2.90;99.90;;;;;;6179200;23;20017;-75
2021/12/23 06:19:02;;;;;;;26.73;15.38;;;1.50;99.90;;;;;;6178831;23;20332;-74
2021/12/23 06:21:30;;;;;;;32.53;16.52;;;1.60;99.90;;;;;;6154361;23;20433;-75
2021/12/23 06:23:56;;;;;;;34.80;16.15;;;4.50;99.90;;;;;;6153797;23;20036;-75
2021/12/23 06:26:22;;;;;;;28.45;16.33;;;4.00;99.90;;;;;;6154038;23;20021;-75
2021/12/23 06:28:48;;;;;;;35.13;21.70;;;3.80;99.90;;;;;;6179041;23;20025;-75
2021/12/23 06:31:15;;;;;;;27.55;16.50;;;4.80;99.90;;;;;;6179177;23;20017;-75
2021/12/23 06:33:41;;;;;;;33.60;18.17;;;4.00;99.90;;;;;;6179004;23;20108;-76
2021/12/23 06:36:07;;;;;;;27.25;16.52;;;4.40;99.90;;;;;;6179182;23;20454;-76
2021/12/23 06:38:35;;;;;;;31.05;18.25;;;2.50;99.90;;;;;;6178939;23;20339;-75
2021/12/23 06:41:01;;;;;;;36.05;18.85;;;3.90;99.90;;;;;;6178760;23;20331;-75
2021/12/23 06:43:27;;;;;;;37.33;22.80;;;2.60;99.90;;;;;;6178724;23;20477;-75
2021/12/23 06:45:53;;;;;;;30.20;17.60;;;2.50;99.90;;;;;;6179163;23;20701;-75
2021/12/23 06:48:19;;;;;;;32.47;18.33;;;3.90;99.90;;;;;;6153610;23;20017;-78
2021/12/23 06:50:45;;;;;;;33.15;18.40;;;2.70;99.90;;;;;;6178217;23;20021;-75
2021/12/23 06:53:14;;;;;;;30.60;19.25;;;4.10;99.90;;;;;;6153745;23;20051;-75
2021/12/23 06:55:41;;;;;;;43.10;23.85;;;2.90;99.90;;;;;;6178742;23;20335;-75
2021/12/23 06:58:07;;;;;;;34.75;20.67;;;2.60;99.90;;;;;;6128637;23;20017;-74
2021/12/23 07:00:33;;;;;;;27.60;16.10;;;3.60;99.90;;;;;;6178915;22;20021;-76
2021/12/23 07:02:59;;;;;;;33.88;18.90;;;2.90;99.90;;;;;;6178668;23;20053;-74
2021/12/23 07:05:25;;;;;;;30.65;18.17;;;2.30;99.90;;;;;;6179047;22;20396;-74
2021/12/23 07:07:54;;;;;;;28.42;18.65;;;2.90;99.90;;;;;;6179700;23;20021;-75
2021/12/23 07:10:24;;;;;;;30.23;17.60;;;2.30;99.90;;;;;;6181414;23;20021;-74
2021/12/23 07:12:50;;;;;;;30.55;17.73;;;2.60;99.90;;;;;;6179919;23;20047;-75
2021/12/23 07:15:16;;;;;;;30.13;18.98;;;3.70;99.90;;;;;;6154423;23;20025;-76
2021/12/23 07:17:42;;;;;;;38.15;21.45;;;2.20;99.90;;;;;;6154370;23;20680;-76
2021/12/23 07:20:08;;;;;;;30.75;18.27;;;3.10;99.90;;;;;;6155578;23;20427;-75
2021/12/23 07:22:34;;;;;;;34.67;19.02;;;2.40;99.90;;;;;;6179700;23;20021;-75
2021/12/23 07:25:00;;;;;;;37.70;21.95;;;3.70;99.90;;;;;;6182075;23;20020;-75
2021/12/23 07:27:26;;;;;;;31.90;18.38;;;1.40;99.90;;;;;;6180075;23;20052;-75
2021/12/23 07:29:52;;;;;;;31.80;18.00;;;4.10;99.90;;;;;;6179743;23;20362;-75
2021/12/23 07:32:18;;;;;;;50.03;26.85;;;2.10;99.90;;;;;;6179706;23;20017;-75
2021/12/23 07:34:45;;;;;;;36.50;19.88;;;4.50;99.90;;;;;;6155650;23;20082;-75
2021/12/23 07:37:11;;;;;;;36.75;21.73;;;2.00;99.90;;;;;;6181638;23;20029;-75
2021/12/23 07:39:38;;;;;;;55.38;30.52;;;3.00;99.90;;;;;;6181362;23;20023;-75
2021/12/23 07:42:05;;;;;;;47.38;24.85;;;2.70;99.90;;;;;;6181821;23;20320;-79
2021/12/23 07:44:30;;;;;;;56.10;29.95;;;2.60;99.90;;;;;;6179690;23;20014;-81
2021/12/23 07:46:58;;;;;;;60.25;29.83;;;2.30;99.90;;;;;;6181582;23;20032;-77
2021/12/23 07:49:24;;;;;;;51.78;28.52;;;2.60;99.90;;;;;;6179506;22;20021;-77
2021/12/23 07:51:50;;;;;;;47.83;26.05;;;2.70;99.90;;;;;;6179266;23;20024;-76
2021/12/23 07:54:16;;;;;;;54.88;27.75;;;2.50;99.90;;;;;;6178036;23;20021;-79
2021/12/23 07:56:41;;;;;;;56.97;30.60;;;3.40;99.90;;;;;;6179147;23;20046;-77
2021/12/23 07:59:07;;;;;;;51.78;26.33;;;2.70;99.90;;;;;;6179237;23;20537;-77
2021/12/23 08:01:33;;;;;;;63.05;29.67;;;2.20;99.90;;;;;;6181619;23;20021;-80
2021/12/23 08:03:59;;;;;;;56.88;27.42;;;2.50;99.90;;;;;;6179469;23;20355;-76
2021/12/23 08:06:24;;;;;;;66.05;33.10;;;2.40;99.90;;;;;;6179169;23;20113;-77
2021/12/23 08:08:50;;;;;;;60.92;27.60;;;3.10;99.90;;;;;;6179412;23;20665;-77
2021/12/23 08:11:16;;;;;;;61.80;31.08;;;2.80;99.90;;;;;;6181544;23;20104;-77
2021/12/23 08:13:41;;;;;;;58.35;31.13;;;3.80;99.90;;;;;;6179203;23;20024;-78
2021/12/23 08:16:07;;;;;;;67.45;31.15;;;2.30;99.90;;;;;;6178733;23;20523;-78
2021/12/23 08:18:33;;;;;;;57.75;30.42;;;3.00;99.90;;;;;;6178610;23;20021;-78
2021/12/23 08:20:59;;;;;;;56.60;30.90;;;4.40;99.90;;;;;;6178703;23;20095;-77
2021/12/23 08:23:26;;;;;;;68.35;36.95;;;2.40;99.90;;;;;;6179238;23;20096;-80
2021/12/23 08:25:53;;;;;;;62.55;35.40;;;2.40;99.90;;;;;;6179320;23;20028;-78
2021/12/23 08:28:19;;;;;;;62.50;32.33;;;2.80;99.90;;;;;;6178158;23;20052;-79
2021/12/23 08:30:45;;;;;;;59.80;31.42;;;2.60;99.90;;;;;;6179150;23;20063;-79
2021/12/23 08:33:11;;;;;;;67.07;33.30;;;3.00;99.90;;;;;;6181249;23;20021;-79
2021/12/23 08:35:40;;;;;;;63.25;29.60;;;3.00;99.90;;;;;;6181262;23;20013;-77
2021/12/23 08:38:06;;;;;;;61.13;28.55;;;2.00;99.90;;;;;;6180868;23;20092;-77
2021/12/23 08:40:33;;;;;;;67.25;31.58;;;2.90;99.90;;;;;;6181548;22;20031;-77
2021/12/23 08:42:59;;;;;;;64.65;31.73;;;2.60;99.90;;;;;;6180938;23;20342;-77
2021/12/23 08:45:27;;;;;;;80.65;30.80;;;2.70;99.90;;;;;;6181091;23;20024;-77
2021/12/23 08:47:56;;;;;;;74.43;37.70;;;2.80;99.90;;;;;;6181081;22;20021;-77
2021/12/23 08:50:23;;;;;;;67.20;29.23;;;2.90;99.90;;;;;;6180713;23;20017;-76
2021/12/23 08:52:49;;;;;;;74.95;34.63;;;3.00;99.90;;;;;;6180675;23;20054;-78
2021/12/23 08:55:16;;;;;;;76.10;34.22;;;2.90;99.90;;;;;;6181146;23;20074;-81
2021/12/23 08:57:42;;;;;;;68.10;35.13;;;3.10;99.90;;;;;;6178726;23;20029;-78
2021/12/23 09:00:13;;;;;;;69.25;33.88;;;2.60;99.90;;;;;;6180971;23;20013;-78
2021/12/23 09:02:38;;;;;;;76.15;32.92;;;2.30;99.90;;;;;;6178736;22;20324;-80
2021/12/23 09:05:05;;;;;;;56.08;29.25;;;3.10;99.90;;;;;;6177900;23;20055;-77
2021/12/23 09:07:31;;;;;;;73.40;35.10;;;2.80;99.90;;;;;;6180631;22;20013;-79
2021/12/23 09:09:57;;;;;;;65.35;30.10;;;3.00;99.90;;;;;;6178962;23;20447;-79
2021/12/23 09:12:23;;;;;;;95.63;39.00;;;3.30;99.90;;;;;;6178394;23;20097;-79
2021/12/23 09:14:50;;;;;;;63.15;30.65;;;2.50;99.90;;;;;;6178295;23;20021;-78
2021/12/23 09:17:16;;;;;;;69.22;33.28;;;2.90;99.90;;;;;;6179980;23;20017;-78
2021/12/23 09:19:42;;;;;;;62.55;34.10;;;2.50;99.90;;;;;;6178738;23;20025;-79
2021/12/23 09:22:09;;;;;;;68.10;31.33;;;3.70;99.90;;;;;;6180801;23;20009;-78
2021/12/23 09:24:37;;;;;;;79.88;36.10;;;2.50;99.90;;;;;;6178329;22;20024;-80
2021/12/23 09:27:17;;;;;;;75.05;32.92;;;2.50;99.90;;;;;;6177910;23;20070;-79
2021/12/23 09:34:55;;;;;;;70.03;30.58;;;2.60;99.90;;;;;;6203451;23;20036;-78
2021/12/23 09:37:23;;;;;;;57.45;31.80;;;3.30;99.90;;;;;;6178735;22;20028;-79
2021/12/23 09:39:54;;;;;;;79.75;34.92;;;2.70;99.90;;;;;;6180608;23;20336;-79
2021/12/23 09:42:24;;;;;;;62.40;32.90;;;3.60;99.90;;;;;;6178411;22;20589;-79
2021/12/23 09:44:51;;;;;;;63.80;29.70;;;3.60;99.90;;;;;;6178524;23;20017;-80
2021/12/23 09:47:18;;;;;;;80.45;34.38;;;2.70;99.90;;;;;;6178450;23;20351;-80
2021/12/23 09:49:45;;;;;;;70.55;35.05;;;3.60;99.90;;;;;;6153648;23;20028;-80
2021/12/23 09:52:12;;;;;;;59.30;30.42;;;2.60;99.90;;;;;;6178736;23;20013;-79
2021/12/23 09:54:44;;;;;;;58.05;30.95;;;3.10;99.90;;;;;;6178753;23;20393;-80
2021/12/23 09:57:09;;;;;;;65.63;32.50;;;2.80;99.90;;;;;;6180604;23;20339;-80
2021/12/23 09:59:35;;;;;;;76.07;33.25;;;5.40;99.90;;;;;;6180441;23;20017;-80
2021/12/23 10:02:01;;;;;;;68.30;32.03;;;2.90;99.90;;;;;;6180754;23;20035;-80
2021/12/23 10:04:27;;;;;;;74.90;32.45;;;3.50;99.90;;;;;;6179113;23;20075;-79
2021/12/23 10:06:54;;;;;;;65.25;33.75;;;3.10;99.90;;;;;;6178726;23;20439;-81
2021/12/23 10:09:38;;;;;;;76.15;37.25;;;4.90;99.90;;;;;;6178661;23;20435;-80
2021/12/23 10:13:09;;;;;;;71.03;35.42;;;2.70;99.90;;;;;;6178683;23;20024;-80
2021/12/23 10:38:33;;;;;;;59.20;27.25;;;3.20;99.90;;;;;;6203611;23;20025;-81
2021/12/23 10:41:06;;;;;;;75.95;34.33;;;5.00;99.90;;;;;;6178190;23;20028;-83
2021/12/23 10:43:38;;;;;;;65.28;34.97;;;3.70;99.90;;;;;;6153028;23;20026;-81
2021/12/23 10:46:15;;;;;;;66.53;32.53;;;4.00;99.90;;;;;;6179087;23;20747;-82
2021/12/23 10:49:25;;;;;;;67.72;33.00;;;3.40;99.90;;;;;;6154296;23;20354;-82
2021/12/23 10:52:09;;;;;;;72.50;34.53;;;3.30;99.90;;;;;;6178809;23;20041;-80
2021/12/23 11:00:13;;;;;;;69.13;35.17;;;4.10;99.90;;;;;;6203772;23;20024;-81
2021/12/23 11:02:41;;;;;;;61.22;33.78;;;4.20;99.90;;;;;;6179137;23;20343;-81
2021/12/23 11:05:20;;;;;;;62.70;31.13;;;5.40;99.90;;;;;;6178695;23;20451;-82
2021/12/23 11:07:57;;;;;;;61.60;33.78;;;4.10;99.90;;;;;;6153894;23;20436;-79
2021/12/23 11:35:34;;;;;;;69.43;37.20;;;5.20;99.90;;;;;;6203393;23;20493;-82
2021/12/23 11:37:55;;;;;;;58.38;32.13;;;3.30;99.90;;;;;;6203438;23;20028;-83
2021/12/23 11:40:51;;;;;;;73.82;32.88;;;3.70;99.90;;;;;;6178577;23;20021;-81
2021/12/23 11:45:48;;;;;;;65.75;31.70;;;3.50;99.90;;;;;;6178955;23;20044;-82
2021/12/23 11:48:15;;;;;;;65.13;32.88;;;6.10;99.90;;;;;;6178270;23;20017;-83
2021/12/23 11:50:54;;;;;;;62.58;26.60;;;4.60;99.90;;;;;;6175782;23;20030;-84
2021/12/23 11:53:24;;;;;;;88.75;35.00;;;3.00;99.90;;;;;;6174847;23;20066;-84
2021/12/23 11:55:51;;;;;;;75.00;32.53;;;4.40;99.90;;;;;;6176725;23;20073;-84
2021/12/23 11:58:23;;;;;;;62.20;30.13;;;4.80;99.90;;;;;;6176382;23;20013;-84
2021/12/23 12:01:05;;;;;;;63.33;28.30;;;3.00;99.90;;;;;;6152887;23;20030;-83
2021/12/23 12:03:36;;;;;;;54.22;26.15;;;4.80;99.90;;;;;;6176369;23;20384;-85
2021/12/23 12:06:14;;;;;;;66.38;32.33;;;4.40;99.90;;;;;;6153129;23;20096;-84
2021/12/23 12:08:40;;;;;;;51.63;25.60;;;3.70;99.90;;;;;;6152855;23;20108;-83
2021/12/23 12:11:20;;;;;;;72.22;31.70;;;3.30;99.90;;;;;;6177883;23;20017;-84
2021/12/23 12:13:46;;;;;;;60.30;28.90;;;4.30;99.90;;;;;;6178593;23;20013;-85
2021/12/23 12:16:36;;;;;;;74.15;30.15;;;4.30;99.90;;;;;;6154899;23;20021;-83
2021/12/23 12:19:06;;;;;;;76.47;32.42;;;3.20;99.90;;;;;;6154888;23;20368;-83
2021/12/23 12:21:34;;;;;;;63.78;28.17;;;4.30;99.90;;;;;;6179772;23;20347;-83
2021/12/23 12:24:13;;;;;;;63.95;26.85;;;4.40;99.90;;;;;;6154909;23;20348;-84
2021/12/23 12:26:56;;;;;;;59.05;29.80;;;3.20;99.90;;;;;;6179670;23;20017;-86
2021/12/23 12:29:32;;;;;;;61.92;27.77;;;3.40;99.90;;;;;;6179679;23;20021;-86
2021/12/23 12:31:58;;;;;;;77.30;36.28;;;3.00;99.90;;;;;;6179728;23;20013;-86
2021/12/23 12:34:31;;;;;;;61.40;29.70;;;3.30;99.90;;;;;;6154613;23;20037;-84
2021/12/23 12:36:59;;;;;;;77.72;33.55;;;3.20;99.90;;;;;;6179615;23;20024;-84
2021/12/23 12:39:31;;;;;;;63.97;29.42;;;4.20;99.90;;;;;;6179651;23;20017;-84
2021/12/23 12:42:04;;;;;;;72.60;32.72;;;3.40;99.90;;;;;;6179469;23;20025;-84
2021/12/23 12:44:51;;;;;;;134.02;31.27;;;3.10;99.90;;;;;;6179652;23;20017;-86
2021/12/23 12:47:24;;;;;;;64.38;29.48;;;4.80;99.90;;;;;;6179291;23;20473;-84
2021/12/23 12:50:05;;;;;;;62.45;31.42;;;4.50;99.90;;;;;;6179509;22;20100;-84
2021/12/23 12:52:33;;;;;;;88.35;36.40;;;5.70;99.90;;;;;;6179389;22;20383;-84
2021/12/23 12:55:03;;;;;;;68.00;33.65;;;3.90;99.90;;;;;;6179251;23;20026;-85
2021/12/23 12:57:36;;;;;;;119.88;45.33;;;4.50;99.90;;;;;;6152583;23;20013;-84
2021/12/23 13:00:19;;;;;;;78.07;32.03;;;4.60;99.90;;;;;;6179020;23;20017;-84
2021/12/23 13:02:51;;;;;;;64.97;30.20;;;2.50;99.90;;;;;;6177868;22;20062;-83
2021/12/23 13:05:26;;;;;;;56.42;29.33;;;5.10;99.90;;;;;;6179661;23;20013;-85
2021/12/23 13:07:52;;;;;;;86.55;33.13;;;3.50;99.90;;;;;;6178925;23;20013;-83
2021/12/23 13:10:21;;;;;;;62.75;27.98;;;4.30;99.90;;;;;;6179427;23;20013;-86
2021/12/23 13:12:52;;;;;;;54.42;26.63;;;3.00;99.90;;;;;;6178802;23;20014;-85
2021/12/23 13:15:22;;;;;;;54.78;28.15;;;4.10;99.90;;;;;;6179038;23;20013;-86
2021/12/23 13:18:14;;;;;;;516.17;57.38;;;5.90;99.90;;;;;;6154529;23;20477;-87
2021/12/23 13:20:47;;;;;;;84.82;35.72;;;3.60;99.90;;;;;;6179042;23;20067;-85
2021/12/23 13:23:22;;;;;;;71.60;31.50;;;4.10;99.90;;;;;;6154416;23;20465;-86
2021/12/23 13:25:54;;;;;;;75.38;31.30;;;4.60;99.90;;;;;;6179633;23;20017;-87
2021/12/23 13:28:33;;;;;;;66.95;30.05;;;3.50;99.90;;;;;;6154476;23;20378;-89
2021/12/23 13:31:00;;;;;;;59.20;28.35;;;4.70;99.90;;;;;;6180585;23;20017;-85
2021/12/23 13:33:26;;;;;;;72.53;30.15;;;3.30;99.90;;;;;;6179416;23;20682;-87
2021/12/23 13:35:52;;;;;;;84.30;33.17;;;4.40;99.90;;;;;;6179581;23;20093;-86
2021/12/23 13:38:27;;;;;;;64.65;28.40;;;6.40;99.90;;;;;;6179987;23;20017;-87
2021/12/23 13:40:53;;;;;;;68.47;30.38;;;6.40;99.90;;;;;;6179446;23;20440;-86
2021/12/23 13:43:31;;;;;;;87.55;32.33;;;6.00;99.90;;;;;;6154787;23;20024;-87
2021/12/23 13:46:06;;;;;;;117.03;45.30;;;3.90;99.90;;;;;;6155363;23;20084;-85
2021/12/23 13:48:32;;;;;;;111.97;39.40;;;5.80;99.90;;;;;;6179509;23;20025;-85
2021/12/23 13:50:59;;;;;;;120.75;41.83;;;5.20;99.90;;;;;;6179236;23;20287;-85